.
WxDataArchive / Data Records for 2008-01-28
2008-01-27 January 2008 2008-01-29

Data Records for Monday, 28 January 2008

Time	Temp	Chill	HIndex	Humid	Dewpt	 Wind 	HiWind	WindDir	Rain 	Barom 
-----	----	-----	------	-----	-----	------	------	-------	-----	----- 
00:00	15.2	15.2	15.2	88	12.3	0	0	---	0.00	30.127 
00:05	15.1	15.1	15.1	88	12.2	0	0	---	0.00	30.124 
00:10	14.9	14.9	14.9	88	12.0	0	0	---	0.00	30.126 
00:15	14.9	14.9	14.9	88	12.0	0	0	---	0.00	30.127 
00:20	14.9	14.9	14.9	88	12.0	0	0	---	0.00	30.126 
00:25	14.9	14.9	14.9	88	12.0	0	0	---	0.00	30.126 
00:30	14.8	14.8	14.8	88	11.9	0	0	---	0.00	30.118 
00:35	14.6	14.6	14.6	88	11.7	0	0	---	0.00	30.117 
00:40	14.6	14.6	14.6	88	11.7	0	0	---	0.00	30.118 
00:45	14.8	14.8	14.8	88	11.9	0	0	---	0.00	30.113 
00:50	14.8	14.8	14.8	89	12.2	0	0	---	0.00	30.112 
00:55	14.8	14.8	14.8	89	12.2	0	0	---	0.00	30.112 
01:00	14.8	14.8	14.8	89	12.2	0	0	---	0.00	30.114 
01:05	14.6	14.6	14.6	89	12.0	0	0	---	0.00	30.114 
01:10	14.6	14.6	14.6	89	12.0	0	0	---	0.00	30.112 
01:15	14.6	14.6	14.6	89	12.0	0	0	---	0.00	30.110 
01:20	14.4	14.4	14.4	89	11.8	0	0	---	0.00	30.107 
01:25	14.4	14.4	14.4	88	11.5	0	0	---	0.00	30.106 
01:30	14.3	14.3	14.3	88	11.4	0	0	---	0.00	30.102 
01:35	14.1	14.1	14.1	88	11.2	0	0	---	0.00	30.099 
01:40	14.1	14.1	14.1	88	11.2	0	0	---	0.00	30.099 
01:45	14.3	14.3	14.3	89	11.7	0	0	---	0.00	30.098 
01:50	14.3	14.3	14.3	89	11.7	0	0	---	0.00	30.097 
01:55	14.4	14.4	14.4	89	11.8	0	0	---	0.00	30.097 
02:00	14.4	14.4	14.4	89	11.8	0	0	---	0.00	30.096 
02:05	14.3	14.3	14.3	89	11.7	0	0	---	0.00	30.096 
02:10	14.3	14.3	14.3	89	11.7	0	0	---	0.00	30.097 
02:15	14.1	14.1	14.1	89	11.5	0	0	---	0.00	30.101 
02:20	14.1	14.1	14.1	89	11.5	0	0	---	0.00	30.107 
02:25	14.1	14.1	14.1	89	11.5	0	0	---	0.00	30.108 
02:30	14.1	14.1	14.1	89	11.5	0	0	---	0.00	30.108 
02:35	14.0	14.0	14.0	89	11.4	0	0	---	0.00	30.109 
02:40	14.0	14.0	14.0	88	11.1	0	0	---	0.00	30.109 
02:45	14.0	14.0	14.0	89	11.4	0	0	---	0.00	30.109 
02:50	13.8	13.8	13.8	88	10.9	0	0	---	0.00	30.109 
02:55	13.6	13.6	13.6	88	10.7	0	0	---	0.00	30.109 
03:00	13.5	13.5	13.5	88	10.6	0	0	---	0.00	30.106 
03:05	13.3	13.3	13.3	88	10.4	0	0	---	0.00	30.103 
03:10	13.1	13.1	13.1	88	10.2	0	0	---	0.00	30.102 
03:15	12.9	12.9	12.9	88	10.0	0	0	---	0.00	30.100 
03:20	12.9	12.9	12.9	88	10.0	0	0	---	0.00	30.101 
03:25	12.9	12.9	12.9	88	10.0	0	0	---	0.00	30.100 
03:30	12.9	12.9	12.9	88	10.0	0	0	---	0.00	30.101 
03:35	12.8	12.8	12.8	88	9.9	0	0	---	0.00	30.100 
03:40	12.8	12.8	12.8	88	9.9	0	0	---	0.00	30.097 
03:45	12.6	12.6	12.6	88	9.7	0	0	---	0.00	30.095 
03:50	12.6	12.6	12.6	88	9.7	0	0	---	0.00	30.089 
03:55	12.6	12.6	12.6	88	9.7	0	0	---	0.00	30.093 
04:00	12.6	12.6	12.6	88	9.7	0	0	---	0.00	30.088 
04:05	12.6	12.6	12.6	88	9.7	0	0	---	0.00	30.089 
04:10	12.8	12.8	12.8	88	9.9	0	0	---	0.00	30.092 
04:15	12.8	12.8	12.8	88	9.9	0	0	---	0.00	30.087 
04:20	12.9	12.9	12.9	88	10.0	0	0	---	0.00	30.089 
04:25	12.9	12.9	12.9	88	10.0	0	0	---	0.00	30.085 
04:30	12.9	12.9	12.9	88	10.0	0	0	---	0.00	30.083 
04:35	13.1	13.1	13.1	88	10.2	0	0	---	0.00	30.082 
04:40	13.3	13.3	13.3	88	10.4	0	0	---	0.00	30.082 
04:45	13.5	13.5	13.5	88	10.6	0	0	---	0.00	30.078 
04:50	13.8	13.8	13.8	88	10.9	0	0	---	0.00	30.079 
04:55	14.1	14.1	14.1	88	11.2	0	0	---	0.00	30.076 
05:00	14.1	14.1	14.1	89	11.5	0	0	---	0.00	30.069 
05:05	14.1	14.1	14.1	89	11.5	0	0	---	0.00	30.074 
05:10	14.3	14.3	14.3	89	11.7	0	0	---	0.00	30.074 
05:15	14.4	14.4	14.4	89	11.8	0	0	---	0.00	30.076 
05:20	14.4	14.4	14.4	89	11.8	0	0	---	0.00	30.077 
05:25	14.4	14.4	14.4	89	11.8	0	0	---	0.00	30.080 
05:30	14.6	14.6	14.6	89	12.0	0	0	---	0.00	30.068 
05:35	14.8	14.8	14.8	89	12.2	0	0	---	0.00	30.069 
05:40	15.1	15.1	15.1	89	12.5	0	0	---	0.00	30.070 
05:45	15.2	15.2	15.2	89	12.6	0	0	---	0.00	30.069 
05:50	15.4	15.4	15.4	89	12.8	0	0	---	0.00	30.066 
05:55	15.6	15.6	15.6	89	12.9	0	0	---	0.00	30.063 
06:00	15.7	15.7	15.7	89	13.0	0	0	---	0.00	30.063 
06:05	15.9	15.9	15.9	89	13.2	0	0	---	0.00	30.069 
06:10	15.7	15.7	15.7	89	13.0	0	0	---	0.00	30.070 
06:15	15.7	15.7	15.7	89	13.0	0	0	---	0.00	30.069 
06:20	15.6	15.6	15.6	88	12.7	0	0	---	0.00	30.068 
06:25	15.4	15.4	15.4	88	12.5	0	0	---	0.00	30.063 
06:30	15.4	15.4	15.4	88	12.5	0	0	---	0.00	30.065 
06:35	15.2	15.2	15.2	88	12.3	0	0	---	0.00	30.068 
06:40	15.1	15.1	15.1	88	12.2	0	0	---	0.00	30.066 
06:45	14.9	14.9	14.9	88	12.0	0	0	---	0.00	30.061 
06:50	14.8	14.8	14.8	88	11.9	0	0	---	0.00	30.069 
06:55	14.6	14.6	14.6	88	11.7	0	0	---	0.00	30.069 
07:00	14.6	14.6	14.6	88	11.7	0	0	---	0.00	30.063 
07:05	14.4	14.4	14.4	88	11.5	0	0	---	0.00	30.064 
07:10	14.3	14.3	14.3	88	11.4	0	0	---	0.00	30.060 
07:15	14.1	14.1	14.1	88	11.2	0	0	---	0.00	30.059 
07:20	14.1	14.1	14.1	87	11.0	0	0	---	0.00	30.061 
07:25	14.0	14.0	14.0	87	10.9	0	0	---	0.00	30.064 
07:30	14.0	14.0	14.0	87	10.9	0	0	---	0.00	30.065 
07:35	13.8	13.8	13.8	88	10.9	0	0	---	0.00	30.060 
07:40	14.0	14.0	14.0	88	11.1	0	0	---	0.00	30.059 
07:45	14.0	14.0	14.0	88	11.1	0	0	---	0.00	30.058 
07:50	14.0	14.0	14.0	88	11.1	0	0	---	0.00	30.057 
07:55	13.8	13.8	13.8	88	10.9	0	0	---	0.00	30.057 
08:00	13.8	13.8	13.8	88	10.9	0	0	---	0.00	30.055 
08:05	13.8	13.8	13.8	88	10.9	0	0	---	0.00	30.054 
08:10	13.6	13.6	13.6	87	10.5	0	0	---	0.00	30.050 
08:15	13.6	13.6	13.6	87	10.5	0	0	---	0.00	30.049 
08:20	13.8	13.8	13.8	88	10.9	0	0	---	0.00	30.047 
08:25	14.0	14.0	14.0	88	11.1	0	0	---	0.00	30.048 
08:30	14.3	14.3	14.3	88	11.4	0	0	---	0.00	30.046 
08:35	14.9	14.9	14.9	89	12.3	0	0	---	0.00	30.044 
08:40	15.9	15.9	15.9	90	13.5	0	0	---	0.00	30.044 
08:45	17.3	17.3	17.3	92	15.4	0	0	---	0.00	30.042 
08:50	18.8	18.8	18.8	92	16.9	0	0	---	0.00	30.037 
08:55	19.5	19.5	19.5	92	17.6	0	0	---	0.00	30.033 
09:00	19.9	19.9	19.9	91	17.7	0	0	---	0.00	30.033 
09:05	20.2	20.2	20.2	91	18.0	0	1	248	0.00	30.029 
09:10	20.5	20.5	20.5	91	18.3	0	1	248	0.00	30.027 
09:15	21.3	21.3	21.3	92	19.3	0	1	248	0.00	30.025 
09:20	22.5	22.5	22.5	92	20.5	0	2	248	0.00	30.021 
09:25	23.9	23.9	23.9	92	21.9	0	2	248	0.00	30.019 
09:30	24.8	24.8	24.8	92	22.8	0	1	202	0.00	30.021 
09:35	25.7	25.7	25.7	92	23.7	0	1	202	0.00	30.019 
09:40	26.4	26.4	26.4	92	24.4	0	1	202	0.00	30.015 
09:45	27.2	27.2	27.2	92	25.2	0	0	---	0.00	30.017 
09:50	27.9	27.9	27.9	91	25.6	0	1	202	0.00	30.016 
09:55	28.5	28.5	28.5	90	25.9	0	0	---	0.00	30.015 
10:00	29.0	29.0	29.0	89	26.2	0	1	202	0.00	30.014 
10:05	29.4	29.4	29.4	88	26.3	0	2	158	0.00	30.011 
10:10	30.1	30.1	30.1	86	26.4	0	3	112	0.00	30.008 
10:15	30.9	30.9	30.9	86	27.2	0	1	112	0.00	30.011 
10:20	31.5	31.5	31.5	84	27.2	0	2	112	0.00	30.007 
10:25	32.5	32.5	32.5	81	27.3	1	4	112	0.00	30.001 
10:30	33.5	33.5	33.5	78	27.4	1	4	112	0.00	29.999 
10:35	34.3	34.3	34.3	76	27.5	1	4	112	0.00	29.998 
10:40	35.2	35.2	35.2	74	27.8	1	3	112	0.00	29.995 
10:45	35.8	35.8	35.8	72	27.7	2	4	112	0.00	29.993 
10:50	36.3	36.3	36.3	71	27.8	1	4	90	0.00	29.993 
10:55	36.6	36.6	36.6	70	27.8	2	5	112	0.00	29.991 
11:00	37.2	37.2	37.2	69	28.0	2	6	112	0.00	29.989 
11:05	37.6	37.6	37.6	68	28.0	1	4	135	0.00	29.986 
11:10	38.0	38.0	38.0	68	28.4	2	6	112	0.00	29.988 
11:15	38.5	38.5	38.5	67	28.5	1	4	112	0.01	29.981 
11:20	38.8	38.8	38.8	66	28.4	1	4	90	0.00	29.977 
11:25	39.2	39.2	39.2	66	28.8	1	4	112	0.00	29.977 
11:30	39.5	39.5	39.5	65	28.7	1	3	90	0.00	29.977 
11:35	39.9	39.9	39.9	65	29.1	1	3	112	0.00	29.979 
11:40	40.2	40.2	40.2	63	28.6	1	6	22	0.00	29.976 
11:45	40.6	40.6	40.6	62	28.6	1	4	22	0.00	29.971 
11:50	40.8	40.8	40.8	61	28.4	2	7	112	0.00	29.968 
11:55	41.1	41.1	41.1	62	29.1	2	6	112	0.00	29.962 
12:00	41.3	41.3	41.3	61	28.9	2	7	112	0.00	29.959 
12:05	41.6	41.6	41.6	61	29.2	2	6	112	0.00	29.957 
12:10	41.6	41.6	41.6	61	29.2	2	6	90	0.00	29.955 
12:15	41.8	41.8	41.8	61	29.4	2	4	112	0.00	29.952 
12:20	42.1	42.1	42.1	60	29.2	2	6	112	0.00	29.948 
12:25	42.2	42.2	42.2	60	29.3	1	3	68	0.00	29.946 
12:30	42.6	42.6	42.6	59	29.3	1	3	135	0.01	29.941 
12:35	42.9	42.9	42.9	59	29.6	2	6	112	0.00	29.940 
12:40	43.2	43.2	43.2	57	29.0	2	8	112	0.00	29.938 
12:45	43.3	43.3	43.3	58	29.5	3	9	112	0.00	29.931 
12:50	43.5	43.5	43.5	58	29.7	2	9	90	0.01	29.926 
12:55	43.8	43.8	43.8	57	29.6	3	7	112	0.00	29.924 
13:00	43.9	43.9	43.9	57	29.7	3	9	112	0.00	29.912 
13:05	44.1	44.1	44.1	57	29.9	3	10	90	0.01	29.911 
13:10	44.2	44.2	44.2	57	29.9	2	6	90	0.00	29.908 
13:15	44.3	44.3	44.3	56	29.6	3	9	90	0.00	29.908 
13:20	44.3	44.3	44.3	57	30.0	2	6	112	0.00	29.902 
13:25	44.3	44.3	44.3	55	29.2	2	10	338	0.00	29.899 
13:30	44.2	44.2	44.2	56	29.5	3	7	68	0.01	29.896 
13:35	43.9	43.9	43.9	56	29.2	2	7	90	0.00	29.892 
13:40	43.6	43.6	43.6	56	29.0	2	6	68	0.00	29.886 
13:45	43.3	43.3	43.3	56	28.7	2	4	90	0.00	29.877 
13:50	43.2	41.0	43.2	55	28.1	4	12	90	0.00	29.879 
13:55	43.1	43.1	43.1	55	28.0	2	12	270	0.00	29.880 
14:00	42.9	42.9	42.9	54	27.4	2	7	270	0.00	29.878 
14:05	42.8	42.8	42.8	55	27.8	2	7	68	0.00	29.875 
14:10	42.8	42.8	42.8	56	28.2	3	10	68	0.00	29.870 
14:15	42.6	42.6	42.6	56	28.0	2	5	90	0.00	29.864 
14:20	42.3	42.3	42.3	57	28.2	3	10	45	0.01	29.859 
14:25	42.1	39.7	42.1	57	28.0	4	8	90	0.00	29.841 
14:30	41.6	41.6	41.6	58	27.9	2	6	90	0.00	29.847 
14:35	41.5	41.5	41.5	58	27.8	2	5	90	0.00	29.841 
14:40	41.3	41.3	41.3	58	27.7	2	5	90	0.00	29.831 
14:45	41.5	41.5	41.5	58	27.8	2	7	112	0.00	29.831 
14:50	41.5	41.5	41.5	57	27.4	3	9	112	0.00	29.829 
14:55	41.5	41.5	41.5	56	27.0	3	8	112	0.00	29.824 
15:00	41.6	41.6	41.6	57	27.5	3	7	90	0.00	29.833 
15:05	41.6	41.6	41.6	57	27.5	2	6	68	0.00	29.841 
15:10	41.6	41.6	41.6	58	27.9	1	5	180	0.00	29.840 
15:15	41.6	41.6	41.6	58	27.9	1	6	338	0.00	29.835 
15:20	41.8	41.8	41.8	56	27.3	1	4	112	0.00	29.833 
15:25	41.8	41.8	41.8	57	27.7	2	6	22	0.00	29.833 
15:30	41.6	41.6	41.6	57	27.5	1	6	68	0.00	29.830 
15:35	41.6	41.6	41.6	57	27.5	2	6	90	0.00	29.828 
15:40	41.6	41.6	41.6	57	27.5	2	5	22	0.00	29.824 
15:45	41.5	41.5	41.5	57	27.4	1	6	45	0.00	29.822 
15:50	41.5	41.5	41.5	56	27.0	1	5	90	0.00	29.822 
15:55	41.3	41.3	41.3	57	27.2	1	5	338	0.00	29.821 
16:00	41.3	41.3	41.3	56	26.8	1	9	338	0.00	29.820 
16:05	41.3	41.3	41.3	56	26.8	2	7	68	0.00	29.822 
16:10	41.5	41.5	41.5	57	27.4	1	5	292	0.00	29.820 
16:15	41.6	41.6	41.6	56	27.1	3	12	270	0.00	29.820 
16:20	41.3	41.3	41.3	58	27.7	1	5	0	0.01	29.820 
16:25	41.1	41.1	41.1	60	28.3	2	7	248	0.00	29.820 
16:30	40.8	40.8	40.8	62	28.8	1	5	202	0.00	29.817 
16:35	40.5	40.5	40.5	63	28.9	1	6	292	0.00	29.816 
16:40	40.1	40.1	40.1	65	29.3	1	3	315	0.01	29.817 
16:45	39.9	39.9	39.9	65	29.1	1	3	90	0.00	29.817 
16:50	39.9	39.9	39.9	65	29.1	1	5	270	0.00	29.817 
16:55	39.9	39.9	39.9	65	29.1	1	4	270	0.00	29.821 
17:00	40.1	40.1	40.1	63	28.5	2	7	112	0.00	29.817 
17:05	39.9	39.9	39.9	65	29.1	1	3	0	0.00	29.814 
17:10	39.8	39.8	39.8	67	29.8	2	6	90	0.00	29.811 
17:15	39.6	39.6	39.6	68	29.9	2	6	90	0.00	29.802 
17:20	39.5	39.5	39.5	68	29.8	3	7	90	0.00	29.792 
17:25	39.3	39.3	39.3	69	30.0	3	9	90	0.00	29.794 
17:30	39.2	39.2	39.2	69	29.9	3	7	112	0.01	29.787 
17:35	39.2	39.2	39.2	70	30.3	3	9	90	0.00	29.786 
17:40	39.2	39.2	39.2	70	30.3	3	11	90	0.00	29.785 
17:45	39.1	39.1	39.1	71	30.5	3	7	90	0.00	29.785 
17:50	39.1	39.1	39.1	71	30.5	3	9	112	0.00	29.775 
17:55	38.9	38.9	38.9	71	30.3	3	6	90	0.00	29.772 
18:00	38.9	38.9	38.9	72	30.7	3	11	90	0.00	29.773 
18:05	38.8	38.8	38.8	73	30.9	2	4	112	0.00	29.774 
18:10	38.8	38.8	38.8	73	30.9	2	5	112	0.01	29.773 
18:15	38.6	38.6	38.6	73	30.7	2	7	90	0.00	29.767 
18:20	38.8	38.8	38.8	72	30.6	3	9	112	0.00	29.762 
18:25	38.8	38.8	38.8	73	30.9	3	10	90	0.00	29.763 
18:30	38.8	38.8	38.8	73	30.9	2	4	90	0.00	29.769 
18:35	38.8	38.8	38.8	73	30.9	3	7	112	0.00	29.770 
18:40	38.6	38.6	38.6	74	31.0	2	4	112	0.01	29.770 
18:45	38.6	38.6	38.6	74	31.0	2	7	112	0.00	29.764 
18:50	38.5	38.5	38.5	74	30.9	3	11	112	0.00	29.759 
18:55	38.5	38.5	38.5	74	30.9	3	7	135	0.00	29.756 
19:00	38.5	38.5	38.5	74	30.9	3	10	112	0.01	29.754 
19:05	38.5	38.5	38.5	74	30.9	2	7	112	0.00	29.764 
19:10	38.5	38.5	38.5	74	30.9	2	4	112	0.00	29.767 
19:15	38.5	38.5	38.5	73	30.6	2	4	112	0.00	29.768 
19:20	38.6	38.6	38.6	71	30.0	2	6	112	0.00	29.759 
19:25	38.8	38.8	38.8	71	30.2	2	5	112	0.00	29.751 
19:30	38.9	38.9	38.9	70	30.0	2	5	90	0.00	29.738 
19:35	38.9	38.9	38.9	69	29.6	3	5	112	0.00	29.725 
19:40	39.1	39.1	39.1	69	29.8	2	6	112	0.00	29.723 
19:45	39.1	39.1	39.1	68	29.4	3	9	90	0.00	29.720 
19:50	39.2	39.2	39.2	68	29.5	3	6	90	0.00	29.713 
19:55	39.3	39.3	39.3	67	29.3	3	9	90	0.00	29.711 
20:00	39.5	39.5	39.5	66	29.1	3	10	90	0.00	29.706 
20:05	39.8	37.1	39.8	64	28.6	4	13	90	0.00	29.698 
20:10	40.1	37.4	40.1	63	28.5	4	10	112	0.00	29.692 
20:15	40.2	37.5	40.2	63	28.6	4	9	90	0.00	29.688 
20:20	40.3	36.8	40.3	62	28.3	5	15	90	0.00	29.677 
20:25	40.6	37.2	40.6	60	27.8	5	11	90	0.00	29.670 
20:30	40.8	38.2	40.8	60	28.0	4	13	90	0.00	29.673 
20:35	40.9	37.5	40.9	59	27.7	5	13	90	0.00	29.669 
20:40	41.1	37.8	41.1	58	27.5	5	12	90	0.00	29.654 
20:45	41.2	37.9	41.2	58	27.6	5	11	90	0.00	29.654 
20:50	41.3	38.0	41.3	57	27.2	5	11	90	0.00	29.654 
20:55	41.5	41.5	41.5	57	27.4	3	7	90	0.00	29.653 
21:00	41.5	41.5	41.5	56	27.0	3	11	112	0.00	29.651 
21:05	41.6	39.2	41.6	55	26.6	4	9	112	0.00	29.639 
21:10	41.8	39.4	41.8	54	26.4	4	12	90	0.00	29.629 
21:15	41.9	39.5	41.9	54	26.5	4	11	112	0.00	29.633 
21:20	41.9	41.9	41.9	54	26.5	3	9	90	0.00	29.632 
21:25	42.1	42.1	42.1	53	26.2	3	10	90	0.00	29.630 
21:30	42.3	40.0	42.3	52	25.9	4	13	90	0.00	29.625 
21:35	42.3	42.3	42.3	53	26.4	3	6	90	0.00	29.622 
21:40	42.3	42.3	42.3	52	25.9	2	9	90	0.00	29.613 
21:45	42.3	42.3	42.3	51	25.5	3	13	90	0.00	29.613 
21:50	42.3	42.3	42.3	52	25.9	2	5	112	0.00	29.610 
21:55	42.2	42.2	42.2	52	25.9	3	9	90	0.00	29.611 
22:00	42.3	42.3	42.3	51	25.5	3	7	112	0.00	29.603 
22:05	42.5	42.5	42.5	51	25.7	3	9	112	0.00	29.589 
22:10	42.6	40.3	42.6	50	25.3	4	9	90	0.00	29.580 
22:15	42.8	40.6	42.8	50	25.5	4	10	90	0.00	29.572 
22:20	42.8	42.8	42.8	50	25.5	3	6	90	0.00	29.570 
22:25	42.8	42.8	42.8	51	25.9	2	6	90	0.00	29.573 
22:30	42.6	42.6	42.6	51	25.8	2	6	112	0.00	29.586 
22:35	42.6	42.6	42.6	52	26.2	1	3	338	0.00	29.587 
22:40	42.6	42.6	42.6	51	25.8	2	7	112	0.00	29.574 
22:45	42.6	42.6	42.6	50	25.3	2	9	45	0.00	29.573 
22:50	42.8	42.8	42.8	50	25.5	1	3	112	0.00	29.567 
22:55	42.8	42.8	42.8	50	25.5	3	10	90	0.00	29.560 
23:00	42.8	42.8	42.8	51	25.9	1	5	90	0.00	29.557 
23:05	42.9	42.9	42.9	49	25.1	3	7	248	0.00	29.590 
23:10	43.1	43.1	43.1	51	26.2	1	5	248	0.00	29.580 
23:15	43.1	43.1	43.1	51	26.2	2	7	248	0.00	29.585 
23:20	42.9	42.9	42.9	52	26.5	1	6	225	0.00	29.572 
23:25	42.9	42.9	42.9	52	26.5	1	4	292	0.00	29.569 
23:30	42.8	42.8	42.8	51	25.9	1	4	292	0.00	29.561 
23:35	42.8	42.8	42.8	50	25.5	1	5	0	0.00	29.552 
23:40	42.8	42.8	42.8	50	25.5	1	3	90	0.00	29.550 
23:45	42.9	42.9	42.9	50	25.6	1	4	45	0.00	29.548 
23:50	43.1	43.1	43.1	50	25.7	1	3	22	0.00	29.541 
23:55	43.2	43.2	43.2	50	25.8	1	4	68	0.00	29.538 

CoCoRaHS
IN-AL-39
A2 Web Hosting
Creative Commons License
GoDaddy
Look for:

loaded 2017-10-16 18:19:24 • last modified 2010-11-18 10:43:29
Privacy PolicyDisclaimer
• wx.awcolley.com is powered by PmWiki v.2002016 •
• all content (unless otherwise noted) © 2017 A W Colley